Time;durP1;ratioP1;P1;durP2;ratioP2;P2;SDS_P1;SDS_P2;PMS_P1;PMS_P2;Temp;Humidity;BMP_temperature;BMP_pressure;BME280_temperature;BME280_humidity;BME280_pressure;Samples;Min_cycle;Max_cycle;Signal;HPM_P1;HPM_P2
2023/06/21 00:01:38;;;;;;;88.18;50.88;;;;;;;;;;4999343;28;20061;-65
2023/06/21 00:04:04;;;;;;;84.53;49.95;;;;;;;;;;4994821;28;20045;-65
2023/06/21 00:06:29;;;;;;;86.57;49.25;;;;;;;;;;4996341;28;20044;-64
2023/06/21 00:08:57;;;;;;;85.90;48.75;;;;;;;;;;4996150;28;20044;-64
2023/06/21 00:11:25;;;;;;;88.50;48.97;;;;;;;;;;4996495;28;20046;-64
2023/06/21 00:13:54;;;;;;;78.38;47.28;;;;;;;;;;4996047;28;20537;-65
2023/06/21 00:16:20;;;;;;;84.60;49.15;;;;;;;;;;4995303;28;20033;-64
2023/06/21 00:18:45;;;;;;;81.88;46.30;;;;;;;;;;4998134;28;20170;-65
2023/06/21 00:21:10;;;;;;;85.57;47.60;;;;;;;;;;5000096;28;20030;-67
2023/06/21 00:23:39;;;;;;;80.75;46.75;;;;;;;;;;4993131;28;20033;-65
2023/06/21 00:26:04;;;;;;;85.53;46.50;;;;;;;;;;4997303;28;20746;-65
2023/06/21 00:28:29;;;;;;;83.07;47.30;;;;;;;;;;4996460;28;20036;-64
2023/06/21 00:30:55;;;;;;;85.35;47.13;;;;;;;;;;4994017;28;20048;-64
2023/06/21 00:33:20;;;;;;;86.95;47.05;;;;;;;;;;4996202;28;20064;-65
2023/06/21 00:35:45;;;;;;;86.57;47.60;;;;;;;;;;4992633;28;20074;-65
2023/06/21 00:38:12;;;;;;;89.60;47.13;;;;;;;;;;4995505;28;20116;-65
2023/06/21 00:40:38;;;;;;;84.05;44.45;;;;;;;;;;4994295;28;20053;-64
2023/06/21 00:43:05;;;;;;;83.72;45.00;;;;;;;;;;5007879;28;20043;-64
2023/06/21 00:45:38;;;;;;;84.50;46.70;;;;;;;;;;4993418;28;20618;-64
2023/06/21 00:48:03;;;;;;;85.95;44.92;;;;;;;;;;4994814;28;20045;-65
2023/06/21 00:50:28;;;;;;;86.05;43.85;;;;;;;;;;4992667;28;20827;-65
2023/06/21 00:52:56;;;;;;;90.95;43.65;;;;;;;;;;4995118;28;20105;-64
2023/06/21 00:55:23;;;;;;;83.53;42.25;;;;;;;;;;4994845;28;20085;-65
2023/06/21 00:57:48;;;;;;;75.90;38.72;;;;;;;;;;4995926;28;20045;-64
2023/06/21 01:00:20;;;;;;;70.85;37.05;;;;;;;;;;4995351;28;20034;-64
2023/06/21 01:02:46;;;;;;;71.32;34.97;;;;;;;;;;4994318;28;20691;-65
2023/06/21 01:05:12;;;;;;;65.13;33.63;;;;;;;;;;5003851;28;20144;-63
2023/06/21 01:07:43;;;;;;;62.20;32.80;;;;;;;;;;4993459;28;20047;-64
2023/06/21 01:10:27;;;;;;;61.50;31.45;;;;;;;;;;4993601;28;20041;-64
2023/06/21 01:13:12;;;;;;;62.65;31.63;;;;;;;;;;5006291;28;20048;-65
2023/06/21 01:15:44;;;;;;;53.83;29.88;;;;;;;;;;4995388;28;20037;-64
2023/06/21 01:18:12;;;;;;;52.30;28.95;;;;;;;;;;4995879;28;20061;-65
2023/06/21 01:20:38;;;;;;;50.90;28.10;;;;;;;;;;4996262;28;20123;-65
2023/06/21 01:23:18;;;;;;;50.17;27.27;;;;;;;;;;4995890;28;20505;-65
2023/06/21 01:25:52;;;;;;;43.85;25.55;;;;;;;;;;4993191;28;20038;-65
2023/06/21 01:28:33;;;;;;;45.80;26.15;;;;;;;;;;4993835;28;20116;-65
2023/06/21 01:30:59;;;;;;;47.45;25.75;;;;;;;;;;4995808;28;20049;-64
2023/06/21 01:33:26;;;;;;;42.17;24.08;;;;;;;;;;5006020;28;20096;-64
2023/06/21 01:35:54;;;;;;;38.22;21.30;;;;;;;;;;4994038;28;20033;-65
2023/06/21 01:38:20;;;;;;;41.88;21.08;;;;;;;;;;4993856;28;20505;-65
2023/06/21 01:40:48;;;;;;;37.80;21.05;;;;;;;;;;4993882;28;20108;-66
2023/06/21 01:43:14;;;;;;;35.28;21.02;;;;;;;;;;4993838;28;20037;-66
2023/06/21 01:45:39;;;;;;;32.03;19.83;;;;;;;;;;4994888;28;20441;-65
2023/06/21 01:48:05;;;;;;;33.47;18.70;;;;;;;;;;4997850;28;20544;-64
2023/06/21 01:50:31;;;;;;;31.92;17.33;;;;;;;;;;4998138;28;20076;-66
2023/06/21 01:52:56;;;;;;;36.20;16.58;;;;;;;;;;4996038;28;20194;-64
2023/06/21 01:55:22;;;;;;;24.65;15.23;;;;;;;;;;4997192;28;20040;-64
2023/06/21 01:57:48;;;;;;;27.80;14.73;;;;;;;;;;4996531;28;20116;-65
2023/06/21 02:00:16;;;;;;;27.33;13.15;;;;;;;;;;4997194;28;20098;-65
2023/06/21 02:03:03;;;;;;;21.67;11.70;;;;;;;;;;4997481;28;20123;-65
2023/06/21 02:05:30;;;;;;;22.52;10.43;;;;;;;;;;4998308;28;20038;-64
2023/06/21 02:07:56;;;;;;;15.32;8.75;;;;;;;;;;5006514;28;20271;-64
2023/06/21 02:10:25;;;;;;;16.08;8.60;;;;;;;;;;4996558;28;20288;-65
2023/06/21 02:12:52;;;;;;;17.90;7.18;;;;;;;;;;5007610;28;20420;-65
2023/06/21 02:15:18;;;;;;;15.43;7.50;;;;;;;;;;4996091;28;20112;-66
2023/06/21 02:17:48;;;;;;;12.45;6.10;;;;;;;;;;4996699;28;20042;-64
2023/06/21 02:20:14;;;;;;;14.48;6.25;;;;;;;;;;4995450;28;20049;-65
2023/06/21 02:22:43;;;;;;;13.35;5.72;;;;;;;;;;4994582;28;20193;-64
2023/06/21 02:25:11;;;;;;;18.00;6.70;;;;;;;;;;4996989;28;20463;-65
2023/06/21 02:27:36;;;;;;;13.75;5.72;;;;;;;;;;4995240;28;20030;-65
2023/06/21 02:30:02;;;;;;;13.73;5.53;;;;;;;;;;4997140;28;20052;-64
2023/06/21 02:32:30;;;;;;;13.10;5.35;;;;;;;;;;4998127;28;20685;-64
2023/06/21 02:34:55;;;;;;;17.27;5.88;;;;;;;;;;4995803;28;20048;-64
2023/06/21 02:37:20;;;;;;;15.98;5.50;;;;;;;;;;5011154;28;20386;-64
2023/06/21 02:39:46;;;;;;;13.40;5.28;;;;;;;;;;4996162;28;20044;-64
2023/06/21 02:42:11;;;;;;;11.05;4.88;;;;;;;;;;4994691;28;20038;-63
2023/06/21 02:44:36;;;;;;;14.32;5.10;;;;;;;;;;5000387;28;20458;-64
2023/06/21 02:47:02;;;;;;;12.55;5.93;;;;;;;;;;4993557;28;20040;-64
2023/06/21 02:49:27;;;;;;;19.55;5.45;;;;;;;;;;4996388;28;20171;-64
2023/06/21 02:51:52;;;;;;;17.50;5.90;;;;;;;;;;4996877;28;21033;-65
2023/06/21 02:54:18;;;;;;;14.13;5.80;;;;;;;;;;4996873;28;20029;-65
2023/06/21 02:56:43;;;;;;;14.43;5.70;;;;;;;;;;5009340;28;20493;-64
2023/06/21 02:59:09;;;;;;;16.67;6.30;;;;;;;;;;4997932;28;20033;-66
2023/06/21 03:01:34;;;;;;;14.77;6.07;;;;;;;;;;4999057;28;20040;-64
2023/06/21 03:03:59;;;;;;;15.40;5.45;;;;;;;;;;4995316;28;20738;-65
2023/06/21 03:06:25;;;;;;;14.40;5.95;;;;;;;;;;4999247;28;20470;-64
2023/06/21 03:08:51;;;;;;;18.15;6.10;;;;;;;;;;4996857;28;20042;-64
2023/06/21 03:11:17;;;;;;;14.10;5.40;;;;;;;;;;4998388;28;20086;-64
2023/06/21 03:13:42;;;;;;;16.95;6.15;;;;;;;;;;5013773;28;20494;-65
2023/06/21 03:16:07;;;;;;;15.55;5.97;;;;;;;;;;4997472;28;20041;-64
2023/06/21 03:18:33;;;;;;;13.43;5.78;;;;;;;;;;4995782;28;20730;-63
2023/06/21 03:21:01;;;;;;;18.80;6.72;;;;;;;;;;4995842;28;20041;-64
2023/06/21 03:23:29;;;;;;;16.80;6.78;;;;;;;;;;4997153;28;20037;-64
2023/06/21 03:25:54;;;;;;;16.83;6.63;;;;;;;;;;4996534;28;20029;-64
2023/06/21 03:28:20;;;;;;;15.13;5.63;;;;;;;;;;4997302;28;20037;-64
2023/06/21 03:30:45;;;;;;;15.77;5.85;;;;;;;;;;4997697;28;20103;-64
2023/06/21 03:33:11;;;;;;;18.35;5.80;;;;;;;;;;4995373;28;21935;-64
2023/06/21 03:35:36;;;;;;;13.90;5.78;;;;;;;;;;4999192;28;20128;-65
2023/06/21 03:38:02;;;;;;;15.40;5.50;;;;;;;;;;4998000;28;20615;-64
2023/06/21 03:40:27;;;;;;;15.65;6.28;;;;;;;;;;5010114;28;20045;-64
2023/06/21 03:42:53;;;;;;;15.80;5.75;;;;;;;;;;4994647;28;20045;-64
2023/06/21 03:45:18;;;;;;;14.23;5.13;;;;;;;;;;4994569;28;20087;-64
2023/06/21 03:47:44;;;;;;;11.77;5.15;;;;;;;;;;5006885;28;20052;-69
2023/06/21 03:50:09;;;;;;;15.35;5.70;;;;;;;;;;4995069;28;20716;-70
2023/06/21 03:52:35;;;;;;;14.63;5.50;;;;;;;;;;4997837;28;20042;-69
2023/06/21 03:55:01;;;;;;;13.05;5.57;;;;;;;;;;4996161;28;20171;-69
2023/06/21 03:57:26;;;;;;;16.23;5.65;;;;;;;;;;4994903;28;20029;-69
2023/06/21 03:59:52;;;;;;;12.45;5.63;;;;;;;;;;4995316;28;20189;-70
2023/06/21 04:02:17;;;;;;;18.13;5.78;;;;;;;;;;4999039;28;20030;-69
2023/06/21 04:04:43;;;;;;;12.57;5.78;;;;;;;;;;5010703;28;20034;-70
2023/06/21 04:07:08;;;;;;;13.07;5.65;;;;;;;;;;4997542;28;20513;-69
2023/06/21 04:09:34;;;;;;;14.70;5.90;;;;;;;;;;4996533;28;20777;-64
2023/06/21 04:11:59;;;;;;;11.27;6.00;;;;;;;;;;4997568;28;20056;-63
2023/06/21 04:14:24;;;;;;;14.18;5.95;;;;;;;;;;4997136;28;20038;-63
2023/06/21 04:16:50;;;;;;;14.05;5.97;;;;;;;;;;4995077;28;20064;-64
2023/06/21 04:19:17;;;;;;;15.57;5.95;;;;;;;;;;4997943;28;20041;-64
2023/06/21 04:21:43;;;;;;;16.25;6.53;;;;;;;;;;4996025;28;20094;-67
2023/06/21 04:24:08;;;;;;;19.40;5.65;;;;;;;;;;4994780;28;20037;-65
2023/06/21 04:26:33;;;;;;;12.65;5.72;;;;;;;;;;4992621;28;20036;-65
2023/06/21 04:29:01;;;;;;;15.98;6.00;;;;;;;;;;4994765;28;20061;-64
2023/06/21 04:31:27;;;;;;;14.80;6.28;;;;;;;;;;4993530;28;20056;-64
2023/06/21 04:33:53;;;;;;;13.38;5.70;;;;;;;;;;4995501;28;20048;-64
2023/06/21 04:36:19;;;;;;;13.50;5.28;;;;;;;;;;4993688;28;20048;-63
2023/06/21 04:38:48;;;;;;;10.77;5.40;;;;;;;;;;4991777;28;20033;-63
2023/06/21 04:41:16;;;;;;;14.07;5.85;;;;;;;;;;4993717;28;20052;-63
2023/06/21 04:43:42;;;;;;;13.02;5.65;;;;;;;;;;4994015;28;20168;-63
2023/06/21 04:46:07;;;;;;;14.48;6.03;;;;;;;;;;4994483;28;20045;-63
2023/06/21 04:48:36;;;;;;;14.15;5.68;;;;;;;;;;4994025;28;20037;-64
2023/06/21 04:51:01;;;;;;;14.00;6.03;;;;;;;;;;4988976;28;20077;-63
2023/06/21 04:53:30;;;;;;;12.82;5.50;;;;;;;;;;4995959;28;20065;-63
2023/06/21 04:55:57;;;;;;;17.50;6.20;;;;;;;;;;5009499;28;20037;-64
2023/06/21 04:58:25;;;;;;;13.43;6.55;;;;;;;;;;4992336;28;20086;-64
2023/06/21 05:00:51;;;;;;;16.33;5.80;;;;;;;;;;4999499;28;20056;-64
2023/06/21 05:03:16;;;;;;;19.17;6.18;;;;;;;;;;4998398;28;20034;-64
2023/06/21 05:05:44;;;;;;;15.38;5.68;;;;;;;;;;4996998;28;20047;-65
2023/06/21 05:08:09;;;;;;;17.38;5.93;;;;;;;;;;4999348;28;20664;-65
2023/06/21 05:10:34;;;;;;;15.20;5.60;;;;;;;;;;5004092;28;20505;-64
2023/06/21 05:13:02;;;;;;;15.80;5.25;;;;;;;;;;4994902;28;20056;-65
2023/06/21 05:15:27;;;;;;;13.70;5.28;;;;;;;;;;4993746;28;20041;-64
2023/06/21 05:17:52;;;;;;;13.90;5.68;;;;;;;;;;5005700;28;20666;-64
2023/06/21 05:20:19;;;;;;;11.73;4.97;;;;;;;;;;5013831;28;20812;-64
2023/06/21 05:22:44;;;;;;;10.98;4.80;;;;;;;;;;5001267;28;20051;-64
2023/06/21 05:25:09;;;;;;;12.82;4.88;;;;;;;;;;4999981;28;20855;-64
2023/06/21 05:27:35;;;;;;;14.05;5.38;;;;;;;;;;4999096;28;20041;-64
2023/06/21 05:30:00;;;;;;;10.10;4.50;;;;;;;;;;5013453;28;20141;-63
2023/06/21 05:32:28;;;;;;;12.30;5.50;;;;;;;;;;4997122;28;20223;-70
2023/06/21 05:34:53;;;;;;;11.27;4.53;;;;;;;;;;4998746;28;20029;-70
2023/06/21 05:37:18;;;;;;;10.82;4.80;;;;;;;;;;5000613;28;20091;-70
2023/06/21 05:39:44;;;;;;;10.88;4.95;;;;;;;;;;4998948;28;20119;-70
2023/06/21 05:42:10;;;;;;;11.63;4.25;;;;;;;;;;5000657;28;20128;-70
2023/06/21 05:44:35;;;;;;;11.88;4.93;;;;;;;;;;4998609;28;20044;-71
2023/06/21 05:47:00;;;;;;;14.00;4.60;;;;;;;;;;4996615;28;20041;-70
2023/06/21 05:49:25;;;;;;;10.85;4.13;;;;;;;;;;4997330;28;20037;-70
2023/06/21 05:51:51;;;;;;;12.77;4.13;;;;;;;;;;4996782;28;20785;-69
2023/06/21 05:54:16;;;;;;;17.10;4.50;;;;;;;;;;5000112;28;20121;-70
2023/06/21 05:56:41;;;;;;;17.50;3.83;;;;;;;;;;4997168;28;20089;-71
2023/06/21 05:59:07;;;;;;;14.13;3.95;;;;;;;;;;4996893;28;20676;-71
2023/06/21 06:01:33;;;;;;;7.88;3.40;;;;;;;;;;5000971;28;20049;-72
2023/06/21 06:03:58;;;;;;;11.57;3.42;;;;;;;;;;4995600;28;20044;-72
2023/06/21 06:06:33;;;;;;;7.10;3.13;;;;;;;;;;5009006;28;20045;-72
2023/06/21 06:08:58;;;;;;;8.55;3.20;;;;;;;;;;5007753;28;20045;-72
2023/06/21 06:11:24;;;;;;;14.20;3.67;;;;;;;;;;4994279;28;20413;-69
2023/06/21 06:13:52;;;;;;;12.98;3.17;;;;;;;;;;4995827;28;20529;-71
2023/06/21 06:16:17;;;;;;;11.60;2.88;;;;;;;;;;4997182;28;20037;-71
2023/06/21 06:18:42;;;;;;;9.27;2.75;;;;;;;;;;4996268;28;20048;-69
2023/06/21 06:21:08;;;;;;;7.47;2.47;;;;;;;;;;4996761;28;20049;-70
2023/06/21 06:23:33;;;;;;;8.93;2.92;;;;;;;;;;4997069;28;20041;-72
2023/06/21 06:25:58;;;;;;;7.13;2.28;;;;;;;;;;4996247;28;20057;-71
2023/06/21 06:28:23;;;;;;;7.68;2.70;;;;;;;;;;4994652;28;20045;-69
2023/06/21 06:30:49;;;;;;;11.02;2.70;;;;;;;;;;4996660;28;20045;-70
2023/06/21 06:33:14;;;;;;;11.30;2.83;;;;;;;;;;4996535;28;20060;-70
2023/06/21 06:35:39;;;;;;;25.27;3.58;;;;;;;;;;5010320;28;20174;-70
2023/06/21 06:38:05;;;;;;;11.30;2.97;;;;;;;;;;4999105;28;20042;-68
2023/06/21 06:40:30;;;;;;;14.07;2.80;;;;;;;;;;5000496;28;20041;-68
2023/06/21 06:42:57;;;;;;;13.10;3.20;;;;;;;;;;4997354;28;20052;-68
2023/06/21 06:45:22;;;;;;;6.20;2.50;;;;;;;;;;4997046;28;20175;-68
2023/06/21 06:47:47;;;;;;;10.88;2.85;;;;;;;;;;4996295;28;20061;-69
2023/06/21 06:50:13;;;;;;;8.52;2.42;;;;;;;;;;5011581;28;20419;-67
2023/06/21 06:52:38;;;;;;;13.77;2.75;;;;;;;;;;4995479;28;20044;-71
2023/06/21 06:55:04;;;;;;;8.20;2.72;;;;;;;;;;4996610;28;20231;-70
2023/06/21 06:57:29;;;;;;;9.40;2.78;;;;;;;;;;4997395;28;20705;-70
2023/06/21 06:59:55;;;;;;;5.60;2.58;;;;;;;;;;4995484;28;20049;-69
2023/06/21 07:02:20;;;;;;;8.35;2.35;;;;;;;;;;4997220;28;20064;-69
2023/06/21 07:04:48;;;;;;;8.77;2.40;;;;;;;;;;4995933;28;20092;-68
2023/06/21 07:07:13;;;;;;;7.47;2.30;;;;;;;;;;4999534;28;20049;-71
2023/06/21 07:09:38;;;;;;;13.05;2.90;;;;;;;;;;4996144;28;20046;-70
2023/06/21 07:12:04;;;;;;;9.73;2.95;;;;;;;;;;4996043;28;20540;-70
2023/06/21 07:14:29;;;;;;;11.05;2.67;;;;;;;;;;5010591;28;20030;-70
2023/06/21 07:16:54;;;;;;;7.30;2.53;;;;;;;;;;4997820;28;20041;-68
2023/06/21 07:19:20;;;;;;;8.65;2.50;;;;;;;;;;4996496;28;20037;-70
2023/06/21 07:21:45;;;;;;;9.48;2.40;;;;;;;;;;5011109;28;20117;-71
2023/06/21 07:24:11;;;;;;;8.20;2.33;;;;;;;;;;4996316;28;20091;-68
2023/06/21 07:26:36;;;;;;;6.72;2.40;;;;;;;;;;4997883;28;20182;-70
2023/06/21 07:29:02;;;;;;;8.70;2.47;;;;;;;;;;4996599;28;20080;-67
2023/06/21 07:31:32;;;;;;;9.90;3.17;;;;;;;;;;4996112;28;20072;-72
2023/06/21 07:33:57;;;;;;;6.88;2.22;;;;;;;;;;4996975;28;20123;-69
2023/06/21 07:36:23;;;;;;;5.97;2.47;;;;;;;;;;4996641;28;20037;-71
2023/06/21 07:38:48;;;;;;;6.25;2.03;;;;;;;;;;4999239;28;20120;-72
2023/06/21 07:41:14;;;;;;;7.18;2.28;;;;;;;;;;4994564;28;20095;-72
2023/06/21 07:43:39;;;;;;;9.35;2.35;;;;;;;;;;4998804;28;20041;-70
2023/06/21 07:46:04;;;;;;;7.05;2.22;;;;;;;;;;4995147;28;20505;-71
2023/06/21 07:48:30;;;;;;;7.10;2.78;;;;;;;;;;4997819;28;20731;-71
2023/06/21 07:50:55;;;;;;;7.18;2.17;;;;;;;;;;4999831;28;20053;-74
2023/06/21 07:53:20;;;;;;;6.93;2.45;;;;;;;;;;5001382;28;20033;-76
2023/06/21 07:55:46;;;;;;;7.90;2.58;;;;;;;;;;5004271;28;20137;-71
2023/06/21 07:58:11;;;;;;;7.45;2.50;;;;;;;;;;4998628;28;20044;-69
2023/06/21 08:00:36;;;;;;;6.65;2.35;;;;;;;;;;4998094;28;20040;-71
2023/06/21 08:03:02;;;;;;;7.07;2.55;;;;;;;;;;4997021;28;20642;-72
2023/06/21 08:05:27;;;;;;;6.93;2.40;;;;;;;;;;5000706;28;20049;-73
2023/06/21 08:07:53;;;;;;;8.52;2.50;;;;;;;;;;5001237;28;20108;-72
2023/06/21 08:10:19;;;;;;;14.75;3.15;;;;;;;;;;5001229;28;20076;-74
2023/06/21 08:12:48;;;;;;;8.90;2.78;;;;;;;;;;5005366;28;21173;-70
2023/06/21 08:15:13;;;;;;;9.82;2.70;;;;;;;;;;4999748;28;20048;-74
2023/06/21 08:17:39;;;;;;;9.00;3.10;;;;;;;;;;4996415;28;20038;-71
2023/06/21 08:20:07;;;;;;;7.72;3.03;;;;;;;;;;4994973;28;20034;-71
2023/06/21 08:22:32;;;;;;;9.80;2.90;;;;;;;;;;4995418;28;20042;-66
2023/06/21 08:24:58;;;;;;;8.43;2.67;;;;;;;;;;4998117;28;20033;-69
2023/06/21 08:27:23;;;;;;;9.55;2.78;;;;;;;;;;5000202;28;20065;-69
2023/06/21 08:29:48;;;;;;;9.77;2.90;;;;;;;;;;4995108;28;21819;-71
2023/06/21 08:32:13;;;;;;;9.57;2.80;;;;;;;;;;4999218;28;20071;-72
2023/06/21 08:34:39;;;;;;;9.57;3.22;;;;;;;;;;4996084;28;20107;-68
2023/06/21 08:37:04;;;;;;;8.45;2.88;;;;;;;;;;4993476;28;20037;-72
2023/06/21 08:39:30;;;;;;;8.63;2.60;;;;;;;;;;4993661;28;20048;-71
2023/06/21 08:41:55;;;;;;;10.07;2.72;;;;;;;;;;4994146;28;20063;-76
2023/06/21 08:44:20;;;;;;;10.35;2.70;;;;;;;;;;4995563;28;20041;-71
2023/06/21 08:46:51;;;;;;;10.27;2.70;;;;;;;;;;4994747;28;20145;-71
2023/06/21 08:49:18;;;;;;;12.38;3.50;;;;;;;;;;4999290;28;20537;-73
2023/06/21 08:51:44;;;;;;;14.68;3.95;;;;;;;;;;4995008;28;20155;-70
2023/06/21 08:54:10;;;;;;;9.00;2.90;;;;;;;;;;4997795;28;20143;-71
2023/06/21 08:56:40;;;;;;;8.65;2.83;;;;;;;;;;5000525;28;20403;-72
2023/06/21 08:59:08;;;;;;;9.75;3.05;;;;;;;;;;4999966;28;20112;-70
2023/06/21 09:01:38;;;;;;;10.10;3.45;;;;;;;;;;4997294;28;20038;-71
2023/06/21 09:04:04;;;;;;;12.27;3.70;;;;;;;;;;4998705;28;20091;-70
2023/06/21 09:06:29;;;;;;;8.35;3.25;;;;;;;;;;4993713;28;20398;-71
2023/06/21 09:08:54;;;;;;;11.45;3.88;;;;;;;;;;4993757;28;20034;-70
2023/06/21 09:11:25;;;;;;;9.70;3.35;;;;;;;;;;4996107;28;20033;-75
2023/06/21 09:13:51;;;;;;;8.75;2.90;;;;;;;;;;4997013;28;20611;-70
2023/06/21 09:16:16;;;;;;;8.45;3.17;;;;;;;;;;5001331;28;20045;-75
2023/06/21 09:18:43;;;;;;;8.60;2.50;;;;;;;;;;4999067;28;21109;-75
2023/06/21 09:21:09;;;;;;;8.30;2.88;;;;;;;;;;4998578;28;20092;-72
2023/06/21 09:23:43;;;;;;;10.60;3.05;;;;;;;;;;5012344;28;20500;-77
2023/06/21 09:26:09;;;;;;;9.25;2.78;;;;;;;;;;5000924;28;20037;-73
2023/06/21 09:28:34;;;;;;;12.07;2.92;;;;;;;;;;4999501;28;20482;-72
2023/06/21 09:31:00;;;;;;;10.50;3.00;;;;;;;;;;4998787;28;20052;-70
2023/06/21 09:33:25;;;;;;;12.82;3.08;;;;;;;;;;5008432;28;20038;-69
2023/06/21 09:35:50;;;;;;;8.52;2.63;;;;;;;;;;4997650;28;20040;-75
2023/06/21 09:38:20;;;;;;;11.32;3.00;;;;;;;;;;4997638;28;20036;-72
2023/06/21 09:40:48;;;;;;;12.27;3.38;;;;;;;;;;4998492;28;20244;-74
2023/06/21 09:43:13;;;;;;;10.65;2.88;;;;;;;;;;4997246;28;20559;-70
2023/06/21 09:45:39;;;;;;;10.05;3.03;;;;;;;;;;4996546;28;21129;-72
2023/06/21 09:48:06;;;;;;;10.43;3.00;;;;;;;;;;4995460;28;20517;-71
2023/06/21 09:50:32;;;;;;;9.48;2.92;;;;;;;;;;4999963;28;20041;-73
2023/06/21 09:52:57;;;;;;;11.38;3.63;;;;;;;;;;4995883;28;22242;-69
2023/06/21 09:55:24;;;;;;;12.07;3.40;;;;;;;;;;4997804;28;20118;-75
2023/06/21 09:57:51;;;;;;;10.60;3.17;;;;;;;;;;4999199;28;20453;-71
2023/06/21 10:00:19;;;;;;;9.48;3.40;;;;;;;;;;5001259;28;20123;-75
2023/06/21 10:02:45;;;;;;;13.23;3.47;;;;;;;;;;4996397;28;20033;-73
2023/06/21 10:05:19;;;;;;;9.52;3.35;;;;;;;;;;4997832;28;20084;-76
2023/06/21 10:07:45;;;;;;;14.00;3.90;;;;;;;;;;4999935;28;20037;-72
2023/06/21 10:10:11;;;;;;;12.65;3.30;;;;;;;;;;4996419;28;20030;-72
2023/06/21 10:12:36;;;;;;;12.00;3.30;;;;;;;;;;5000382;28;20044;-71
2023/06/21 10:15:06;;;;;;;13.02;3.58;;;;;;;;;;5000760;28;20349;-71
2023/06/21 10:17:31;;;;;;;16.33;4.72;;;;;;;;;;4998042;28;20061;-72
2023/06/21 10:19:58;;;;;;;11.90;3.63;;;;;;;;;;4999422;28;22217;-71
2023/06/21 10:22:24;;;;;;;11.48;3.80;;;;;;;;;;4997573;28;20030;-74
2023/06/21 10:24:50;;;;;;;12.00;3.88;;;;;;;;;;5004829;28;20037;-73
2023/06/21 10:27:16;;;;;;;10.55;3.78;;;;;;;;;;4997938;28;21867;-72
2023/06/21 10:29:43;;;;;;;11.38;4.00;;;;;;;;;;4998658;28;20045;-71
2023/06/21 10:32:08;;;;;;;11.15;3.92;;;;;;;;;;5006713;28;20042;-74
2023/06/21 10:34:55;;;;;;;13.70;4.43;;;;;;;;;;4995630;28;20061;-72
2023/06/21 10:37:39;;;;;;;10.70;4.00;;;;;;;;;;4987137;28;20080;-72
2023/06/21 10:40:06;;;;;;;11.85;4.40;;;;;;;;;;4996773;28;20789;-71
2023/06/21 10:42:31;;;;;;;10.82;4.72;;;;;;;;;;4999621;28;21081;-71
2023/06/21 10:44:58;;;;;;;13.65;4.45;;;;;;;;;;4997826;28;20045;-71
2023/06/21 10:47:25;;;;;;;12.18;4.50;;;;;;;;;;4999993;28;20045;-71
2023/06/21 10:49:51;;;;;;;13.55;4.70;;;;;;;;;;5000698;28;22799;-71
2023/06/21 10:52:17;;;;;;;14.10;5.00;;;;;;;;;;4995354;28;20038;-69
2023/06/21 10:54:44;;;;;;;12.85;4.65;;;;;;;;;;4994447;28;20513;-71
2023/06/21 10:57:10;;;;;;;11.10;5.40;;;;;;;;;;4998128;28;20583;-70
2023/06/21 10:59:35;;;;;;;10.70;5.25;;;;;;;;;;4996863;28;20029;-71
2023/06/21 11:02:01;;;;;;;12.40;5.45;;;;;;;;;;4994199;28;20037;-70
2023/06/21 11:04:28;;;;;;;13.30;5.50;;;;;;;;;;4993869;28;20037;-72
2023/06/21 11:06:58;;;;;;;10.70;5.38;;;;;;;;;;4992245;28;20037;-70
2023/06/21 11:09:23;;;;;;;13.85;5.53;;;;;;;;;;4994675;28;20041;-71
2023/06/21 11:11:50;;;;;;;12.85;5.68;;;;;;;;;;5006747;28;20045;-71
2023/06/21 11:14:19;;;;;;;11.90;6.07;;;;;;;;;;4993371;28;20588;-72
2023/06/21 11:16:45;;;;;;;13.10;5.85;;;;;;;;;;4987529;28;20038;-69
2023/06/21 11:19:13;;;;;;;14.05;6.47;;;;;;;;;;4996303;28;20473;-72
2023/06/21 11:21:45;;;;;;;12.82;5.95;;;;;;;;;;4992789;28;20497;-74
2023/06/21 11:24:11;;;;;;;13.55;5.70;;;;;;;;;;4986617;28;20037;-72
2023/06/21 11:26:58;;;;;;;13.20;5.80;;;;;;;;;;4994349;28;20042;-72
2023/06/21 11:29:38;;;;;;;9.52;6.18;;;;;;;;;;5009308;28;20033;-71
2023/06/21 11:32:10;;;;;;;12.35;5.88;;;;;;;;;;5001511;28;20545;-70
2023/06/21 11:34:35;;;;;;;16.05;5.78;;;;;;;;;;5010709;28;20037;-72
2023/06/21 11:37:20;;;;;;;16.90;5.50;;;;;;;;;;5001569;28;20084;-71
2023/06/21 11:39:56;;;;;;;11.02;5.72;;;;;;;;;;5012837;28;20034;-71
2023/06/21 11:42:25;;;;;;;11.20;5.72;;;;;;;;;;5010870;28;20061;-70
2023/06/21 11:44:51;;;;;;;27.40;6.68;;;;;;;;;;5007232;28;20050;-70
2023/06/21 11:47:17;;;;;;;18.77;6.18;;;;;;;;;;5004447;28;20094;-70
2023/06/21 11:49:50;;;;;;;15.73;6.03;;;;;;;;;;5008672;28;20041;-72
2023/06/21 11:52:17;;;;;;;17.83;6.03;;;;;;;;;;5002307;28;20121;-70
2023/06/21 11:54:42;;;;;;;15.73;5.72;;;;;;;;;;5001985;28;20048;-71
2023/06/21 11:57:07;;;;;;;17.55;6.45;;;;;;;;;;5004063;28;20695;-71
2023/06/21 11:59:36;;;;;;;13.63;6.00;;;;;;;;;;5000336;28;20410;-71
2023/06/21 12:02:14;;;;;;;15.10;6.15;;;;;;;;;;4994033;28;20087;-73
2023/06/21 12:04:40;;;;;;;18.27;5.90;;;;;;;;;;4994552;28;20096;-74
2023/06/21 12:07:09;;;;;;;25.63;6.70;;;;;;;;;;5009449;28;20045;-75
2023/06/21 12:09:35;;;;;;;14.10;5.65;;;;;;;;;;4996767;28;20631;-75
2023/06/21 12:12:00;;;;;;;15.13;5.50;;;;;;;;;;5009378;28;20049;-70
2023/06/21 12:14:26;;;;;;;13.88;6.25;;;;;;;;;;5013391;28;20033;-69
2023/06/21 12:16:54;;;;;;;13.35;5.78;;;;;;;;;;5025689;28;20569;-71
2023/06/21 12:19:21;;;;;;;25.65;6.40;;;;;;;;;;5017764;28;20045;-68
2023/06/21 12:21:47;;;;;;;20.23;6.07;;;;;;;;;;5005971;28;20029;-74
2023/06/21 12:24:24;;;;;;;17.85;6.03;;;;;;;;;;4999312;28;20044;-75
2023/06/21 12:26:49;;;;;;;12.43;5.43;;;;;;;;;;4992001;28;21257;-71
2023/06/21 12:29:17;;;;;;;12.07;5.68;;;;;;;;;;4990260;28;20041;-74
2023/06/21 12:31:45;;;;;;;9.85;5.22;;;;;;;;;;4993900;28;20048;-73
2023/06/21 12:34:17;;;;;;;9.88;5.20;;;;;;;;;;4992461;28;20048;-73
2023/06/21 12:36:45;;;;;;;16.20;5.75;;;;;;;;;;4983132;28;20037;-74
2023/06/21 12:39:12;;;;;;;17.50;5.43;;;;;;;;;;4991994;28;20079;-74
2023/06/21 12:41:39;;;;;;;10.50;4.85;;;;;;;;;;4995002;28;20042;-72
2023/06/21 12:44:08;;;;;;;12.63;5.32;;;;;;;;;;4992037;28;20115;-72
2023/06/21 12:46:37;;;;;;;50.55;8.27;;;;;;;;;;4995471;28;20570;-71
2023/06/21 12:49:03;;;;;;;10.50;5.10;;;;;;;;;;4997919;28;20040;-73
2023/06/21 12:51:29;;;;;;;35.40;7.47;;;;;;;;;;4993299;28;20046;-73
2023/06/21 12:53:59;;;;;;;13.90;5.70;;;;;;;;;;4994946;28;20033;-75
2023/06/21 12:56:32;;;;;;;20.23;5.65;;;;;;;;;;5002796;28;21000;-74
2023/06/21 12:58:57;;;;;;;11.70;4.68;;;;;;;;;;4991472;28;20062;-72
2023/06/21 13:01:23;;;;;;;13.13;5.45;;;;;;;;;;4993141;28;21990;-76
2023/06/21 13:03:48;;;;;;;11.57;5.18;;;;;;;;;;5001937;28;20120;-71
2023/06/21 13:06:14;;;;;;;12.93;5.20;;;;;;;;;;4990150;28;20042;-74
2023/06/21 13:08:40;;;;;;;8.52;4.75;;;;;;;;;;4992633;28;20128;-73
2023/06/21 13:11:05;;;;;;;10.68;4.88;;;;;;;;;;4991203;28;20056;-71
2023/06/21 13:13:30;;;;;;;9.65;4.28;;;;;;;;;;4986673;28;20075;-72
2023/06/21 13:15:58;;;;;;;10.00;4.47;;;;;;;;;;4995033;28;20487;-71
2023/06/21 13:18:24;;;;;;;11.07;4.70;;;;;;;;;;4992994;28;20029;-75
2023/06/21 13:20:51;;;;;;;9.38;4.50;;;;;;;;;;5004964;28;20409;-73
2023/06/21 13:23:16;;;;;;;13.32;4.82;;;;;;;;;;4992202;28;20037;-70
2023/06/21 13:25:44;;;;;;;11.60;5.20;;;;;;;;;;4990551;28;20402;-72
2023/06/21 13:28:09;;;;;;;8.25;4.25;;;;;;;;;;4986427;28;20034;-69
2023/06/21 13:30:35;;;;;;;13.40;4.72;;;;;;;;;;4988660;28;20608;-72
2023/06/21 13:33:00;;;;;;;9.27;4.00;;;;;;;;;;4990411;28;20115;-72
2023/06/21 13:35:25;;;;;;;10.32;4.38;;;;;;;;;;4991262;28;20037;-70
2023/06/21 13:37:51;;;;;;;10.10;4.47;;;;;;;;;;4991657;28;20029;-70
2023/06/21 13:40:16;;;;;;;8.60;4.40;;;;;;;;;;4987057;28;20494;-71
2023/06/21 13:42:41;;;;;;;9.90;4.40;;;;;;;;;;4990812;28;20248;-62
2023/06/21 13:45:07;;;;;;;8.32;3.95;;;;;;;;;;4986146;28;21762;-66
2023/06/21 13:47:32;;;;;;;7.18;4.20;;;;;;;;;;4995453;28;20508;-64
2023/06/21 13:50:00;;;;;;;9.40;4.45;;;;;;;;;;4994774;28;20244;-65
2023/06/21 13:52:27;;;;;;;12.68;4.72;;;;;;;;;;4994519;28;20513;-66
2023/06/21 13:54:52;;;;;;;11.75;4.85;;;;;;;;;;4993313;28;20342;-64
2023/06/21 13:57:17;;;;;;;10.63;4.30;;;;;;;;;;4981767;28;20254;-63
2023/06/21 13:59:46;;;;;;;8.75;4.15;;;;;;;;;;4984513;28;20042;-67
2023/06/21 14:02:12;;;;;;;9.95;3.80;;;;;;;;;;4987130;28;20502;-64
2023/06/21 14:04:37;;;;;;;7.95;3.80;;;;;;;;;;4978171;28;20140;-65
2023/06/21 14:07:03;;;;;;;8.55;4.00;;;;;;;;;;4994841;28;20508;-65
2023/06/21 14:09:28;;;;;;;8.85;3.85;;;;;;;;;;4993477;28;21994;-64
2023/06/21 14:11:56;;;;;;;7.32;3.67;;;;;;;;;;4993349;28;20493;-65
2023/06/21 14:14:21;;;;;;;8.90;4.20;;;;;;;;;;4996544;28;20034;-66
2023/06/21 14:16:49;;;;;;;8.32;4.20;;;;;;;;;;4997459;28;20105;-63
2023/06/21 14:19:17;;;;;;;14.60;4.70;;;;;;;;;;4998057;28;20158;-65
2023/06/21 14:21:44;;;;;;;6.97;3.80;;;;;;;;;;4996387;28;20498;-63
2023/06/21 14:24:12;;;;;;;9.25;4.00;;;;;;;;;;4993782;28;20531;-66
2023/06/21 14:26:37;;;;;;;11.63;4.57;;;;;;;;;;4994171;28;20652;-67
2023/06/21 14:29:03;;;;;;;9.93;4.45;;;;;;;;;;4993745;28;20063;-64